createdAt,value
2019-04-05T00:00:41.656Z,6.23
2019-04-05T00:05:37.573Z,6.30
2019-04-05T00:10:33.632Z,6.38
2019-04-05T00:15:29.543Z,6.25
2019-04-05T00:20:25.460Z,6.27
2019-04-05T00:25:21.447Z,6.34
2019-04-05T00:30:17.361Z,6.31
2019-04-05T00:35:14.493Z,6.30
2019-04-05T00:40:10.919Z,6.30
2019-04-05T00:45:07.643Z,6.31
2019-04-05T00:50:05.560Z,6.38
2019-04-05T00:55:01.577Z,6.41
2019-04-05T00:59:57.500Z,6.44
2019-04-05T01:04:53.434Z,6.41
2019-04-05T01:09:49.447Z,6.45
2019-04-05T01:14:45.368Z,6.40
2019-04-05T01:19:43.611Z,6.36
2019-04-05T01:24:40.205Z,6.50
2019-04-05T01:29:36.188Z,6.55
2019-04-05T01:34:32.165Z,6.43
2019-04-05T01:39:28.122Z,6.40
2019-04-05T01:44:24.391Z,6.38
2019-04-05T01:49:20.314Z,6.42
2019-04-05T01:54:19.653Z,6.38
2019-04-05T01:59:15.642Z,6.42
2019-04-05T02:04:11.597Z,6.49
2019-04-05T02:09:09.918Z,6.31
2019-04-05T02:14:05.932Z,6.27
2019-04-05T02:19:01.995Z,6.34
2019-04-05T02:24:11.500Z,6.35
2019-04-05T02:29:07.615Z,6.33
2019-04-05T02:34:03.638Z,6.30
2019-04-05T02:38:59.641Z,6.34
2019-04-05T02:43:57.270Z,6.35
2019-04-05T02:48:53.792Z,6.35
2019-04-05T02:53:53.765Z,6.28
2019-04-05T02:58:50.196Z,6.31
2019-04-05T03:03:46.216Z,6.47
2019-04-05T03:08:42.473Z,6.41
2019-04-05T03:13:42.197Z,6.37
2019-04-05T03:18:42.019Z,6.39
2019-04-05T03:23:39.551Z,6.43
2019-04-05T03:28:36.872Z,6.35
2019-04-05T03:33:33.396Z,6.34
2019-04-05T03:38:29.603Z,6.28
2019-04-05T03:43:25.625Z,6.31
2019-04-05T03:48:21.546Z,6.36
2019-04-05T03:53:17.670Z,6.44
2019-04-05T03:58:13.587Z,6.50
2019-04-05T04:03:09.612Z,6.56
2019-04-05T04:08:05.576Z,6.51
2019-04-05T04:13:01.600Z,6.51
2019-04-05T04:17:57.552Z,6.50
2019-04-05T04:22:53.569Z,6.45
2019-04-05T04:27:49.496Z,6.50
2019-04-05T04:32:45.592Z,6.57
2019-04-05T04:37:41.796Z,6.53
2019-04-05T04:42:37.806Z,6.35
2019-04-05T04:47:34.226Z,6.39
2019-04-05T04:52:31.489Z,6.57
2019-04-05T04:57:27.825Z,6.43
2019-04-05T05:02:23.844Z,6.46
2019-04-05T05:07:19.862Z,6.44
2019-04-05T05:12:15.903Z,6.46
2019-04-05T05:17:12.476Z,6.48
2019-04-05T05:22:08.748Z,6.53
2019-04-05T05:27:05.168Z,6.30
2019-04-05T05:32:01.942Z,6.24
2019-04-05T05:36:57.883Z,6.33
2019-04-05T05:41:53.801Z,6.27
2019-04-05T05:46:49.732Z,6.25
2019-04-05T05:51:45.624Z,6.30
2019-04-05T05:56:41.576Z,6.28
2019-04-05T06:01:37.501Z,6.20
2019-04-05T06:06:33.521Z,6.15
2019-04-05T06:11:29.537Z,6.18
2019-04-05T06:16:25.459Z,6.19
2019-04-05T06:21:21.854Z,6.29
2019-04-05T06:26:17.833Z,6.35
2019-04-05T06:31:13.831Z,6.26
2019-04-05T06:36:09.749Z,6.28
2019-04-05T06:41:05.770Z,6.35
2019-04-05T06:46:02.105Z,6.33
2019-04-05T06:50:58.063Z,6.25
2019-04-05T06:55:53.992Z,6.27
2019-04-05T07:00:56.847Z,6.29
2019-04-05T07:05:47.832Z,6.43
2019-04-05T07:10:45.375Z,6.45
2019-04-05T07:15:41.375Z,6.42
2019-04-05T07:20:37.287Z,6.68
2019-04-05T07:25:33.258Z,6.70
2019-04-05T07:30:29.199Z,6.72
2019-04-05T07:35:33.411Z,6.59
2019-04-05T07:40:23.635Z,6.60
2019-04-05T07:45:19.743Z,6.61
2019-04-05T07:50:15.764Z,6.37
2019-04-05T07:55:12.263Z,6.50
2019-04-05T08:00:12.088Z,6.36
2019-04-05T08:05:08.123Z,6.30
2019-04-05T08:10:07.749Z,6.37
2019-04-05T08:15:04.670Z,6.55
2019-04-05T08:20:00.590Z,6.83
2019-04-05T08:24:56.515Z,6.81
2019-04-05T08:29:52.473Z,6.83
2019-04-05T08:34:48.494Z,6.95
2019-04-05T08:39:46.624Z,6.89
2019-04-05T08:44:44.582Z,6.88
2019-04-05T08:49:44.971Z,6.92
2019-04-05T08:54:41.704Z,6.86
2019-04-05T08:59:41.914Z,6.77
2019-04-05T09:04:38.852Z,7.11
2019-04-05T09:09:34.867Z,7.06
2019-04-05T09:14:32.714Z,6.93
2019-04-05T09:19:34.415Z,7.00
2019-04-05T09:24:31.267Z,6.99
2019-04-05T09:29:27.910Z,7.02
2019-04-05T09:34:25.292Z,7.31
2019-04-05T09:39:22.082Z,7.37
2019-04-05T09:44:18.134Z,7.24
2019-04-05T09:49:14.076Z,7.28
2019-04-05T09:54:21.374Z,7.25
2019-04-05T09:59:17.397Z,7.37
2019-04-05T10:04:13.419Z,7.30
2019-04-05T10:09:09.340Z,7.13
2019-04-05T10:14:05.261Z,7.15
2019-04-05T10:19:01.302Z,7.14
2019-04-05T10:23:57.222Z,7.23
2019-04-05T10:28:53.187Z,7.36
2019-04-05T10:33:49.131Z,7.24
2019-04-05T10:38:45.048Z,7.22
2019-04-05T10:43:40.964Z,7.43
2019-04-05T10:48:36.886Z,7.32
2019-04-05T10:53:32.800Z,7.45
2019-04-05T10:58:28.785Z,7.37
2019-04-05T11:03:24.707Z,7.66
2019-04-05T11:08:20.619Z,7.46
2019-04-05T11:13:16.598Z,7.43
2019-04-05T11:18:12.520Z,7.44
2019-04-05T11:23:08.439Z,7.51
2019-04-05T11:28:04.404Z,7.61
2019-04-05T11:33:00.463Z,7.47
2019-04-05T11:37:56.482Z,7.64
2019-04-05T11:42:52.807Z,7.54
2019-04-05T11:47:49.141Z,7.57
2019-04-05T11:52:45.059Z,7.50
2019-04-05T11:57:41.918Z,7.85
2019-04-05T12:02:39.912Z,8.02
2019-04-05T12:07:35.831Z,7.74
2019-04-05T12:12:31.750Z,7.48
2019-04-05T12:17:27.695Z,7.62
2019-04-05T12:22:23.633Z,7.52
2019-04-05T12:27:20.844Z,7.70
2019-04-05T12:32:18.947Z,7.46
2019-04-05T12:37:14.863Z,7.61
2019-04-05T12:42:12.153Z,7.81
2019-04-05T12:47:08.852Z,7.58
2019-04-05T12:52:05.104Z,7.73
2019-04-05T12:57:01.021Z,7.82
2019-04-05T13:01:59.493Z,7.59
2019-04-05T13:06:54.806Z,7.80
2019-04-05T13:11:50.803Z,7.90
2019-04-05T13:16:49.377Z,8.02
2019-04-05T13:21:44.624Z,8.09
2019-04-05T13:26:42.053Z,7.88
2019-04-05T13:31:38.466Z,8.06
2019-04-05T13:36:34.369Z,7.98
2019-04-05T13:41:32.265Z,7.86
2019-04-05T13:46:28.144Z,7.86
2019-04-05T13:51:28.271Z,7.99
2019-04-05T13:56:21.971Z,7.95
2019-04-05T14:01:18.510Z,7.87
2019-04-05T14:06:15.853Z,7.75
2019-04-05T14:11:11.822Z,7.77
2019-04-05T14:16:07.805Z,7.67
2019-04-05T14:21:03.774Z,7.66
2019-04-05T14:26:00.400Z,7.86
2019-04-05T14:30:56.371Z,7.87
2019-04-05T14:35:52.526Z,7.94
2019-04-05T14:40:50.186Z,7.98
2019-04-05T14:45:46.098Z,7.91
2019-04-05T14:50:42.276Z,7.85
2019-04-05T14:55:38.741Z,7.70
2019-04-05T15:00:34.790Z,7.73
2019-04-05T15:05:30.806Z,7.68
2019-04-05T15:10:26.831Z,7.79
2019-04-05T15:15:22.854Z,8.14
2019-04-05T15:20:19.173Z,8.10
2019-04-05T15:25:21.268Z,8.31
2019-04-05T15:30:15.413Z,8.28
2019-04-05T15:35:11.530Z,8.58
2019-04-05T15:40:08.950Z,8.63
2019-04-05T15:45:08.360Z,8.30
2019-04-05T15:50:07.341Z,8.17
2019-04-05T15:55:07.578Z,8.11
2019-04-05T16:00:09.233Z,8.10
2019-04-05T16:05:14.690Z,7.94
2019-04-05T16:10:22.151Z,8.12
2019-04-05T16:15:21.179Z,7.97
2019-04-05T16:20:18.698Z,8.14
2019-04-05T16:25:15.492Z,8.20
2019-04-05T16:35:28.265Z,8.22
2019-04-05T16:40:27.099Z,8.31
2019-04-05T16:45:28.178Z,8.22
2019-04-05T16:50:26.448Z,8.50
2019-04-05T16:55:27.608Z,8.20
2019-04-05T17:00:45.280Z,8.12
2019-04-05T17:05:42.633Z,8.08
2019-04-05T17:10:44.146Z,8.21
2019-04-05T17:20:51.377Z,8.28
2019-04-05T17:25:49.410Z,8.24
2019-04-05T17:30:46.487Z,8.20
2019-04-05T17:35:42.498Z,8.20
2019-04-05T17:40:38.461Z,7.95
2019-04-05T17:45:35.213Z,8.14
2019-04-05T17:50:32.431Z,8.27
2019-04-05T17:55:31.565Z,8.04
2019-04-05T18:00:27.489Z,8.01
2019-04-05T18:05:25.613Z,8.17
2019-04-05T18:10:21.638Z,8.20
2019-04-05T18:15:17.561Z,8.32
2019-04-05T18:20:13.591Z,8.13
2019-04-05T18:25:09.667Z,8.26
2019-04-05T18:30:06.592Z,8.21
2019-04-05T18:35:04.218Z,8.25
2019-04-05T18:40:00.140Z,8.17
2019-04-05T18:44:56.065Z,8.22
2019-04-05T18:50:02.401Z,8.31
2019-04-05T18:54:50.501Z,8.26
2019-04-05T18:59:46.481Z,8.27
2019-04-05T19:04:42.402Z,8.31
2019-04-05T19:09:38.320Z,8.17
2019-04-05T19:14:34.245Z,8.18
2019-04-05T19:19:30.275Z,8.04
2019-04-05T19:24:26.174Z,8.13
2019-04-05T19:29:22.387Z,8.13
2019-04-05T19:49:14.531Z,8.09
2019-04-05T19:54:10.601Z,8.31
2019-04-05T19:59:06.525Z,8.40
2019-04-05T20:04:02.482Z,8.27
2019-04-05T20:08:58.596Z,8.37
2019-04-05T20:13:54.525Z,8.33
2019-04-05T20:18:50.447Z,8.38
2019-04-05T20:23:47.661Z,8.49
2019-04-05T20:28:43.989Z,8.42
2019-04-05T20:33:39.937Z,8.15
2019-04-05T20:38:35.930Z,7.99
2019-04-05T20:43:31.865Z,8.15
2019-04-05T20:48:27.793Z,8.08
2019-04-05T20:53:23.779Z,8.17
2019-04-05T20:58:19.830Z,8.45
2019-04-05T21:03:16.177Z,8.38
2019-04-05T21:08:12.069Z,8.08
2019-04-05T21:13:07.994Z,8.07
2019-04-05T21:18:04.011Z,7.93
2019-04-05T21:22:59.935Z,8.02
2019-04-05T21:27:55.911Z,7.97
2019-04-05T21:32:51.891Z,8.06
2019-04-05T21:37:47.806Z,7.95
2019-04-05T21:42:43.758Z,8.09
2019-04-05T21:47:39.734Z,8.07
2019-04-05T21:52:35.651Z,8.16
2019-04-05T21:57:31.573Z,8.23
2019-04-05T22:02:27.590Z,8.16
2019-04-05T22:07:23.620Z,7.98
2019-04-05T22:12:20.884Z,8.16
2019-04-05T22:17:16.809Z,8.26
2019-04-05T22:22:12.761Z,8.18
2019-04-05T22:27:08.671Z,8.08
2019-04-05T22:32:04.581Z,8.03
2019-04-05T22:37:00.498Z,8.09
2019-04-05T22:41:56.411Z,8.11
2019-04-05T22:46:52.433Z,8.07
2019-04-05T22:51:48.349Z,8.06
2019-04-05T22:56:44.272Z,7.99
2019-04-05T23:01:40.212Z,8.10
2019-04-05T23:06:36.166Z,8.09
2019-04-05T23:11:32.129Z,8.30
2019-04-05T23:16:28.047Z,8.14
2019-04-05T23:21:23.967Z,8.13
2019-04-05T23:26:19.890Z,8.13
2019-04-05T23:31:15.799Z,8.22
2019-04-05T23:36:11.801Z,8.38
2019-04-05T23:41:07.749Z,8.36
2019-04-05T23:46:03.766Z,8.38
2019-04-05T23:50:59.696Z,8.35
2019-04-05T23:55:55.615Z,8.38
